Time;durP1;ratioP1;P1;durP2;ratioP2;P2;SDS_P1;SDS_P2;PMS_P1;PMS_P2;Temp;Humidity;BMP_temperature;BMP_pressure;BME280_temperature;BME280_humidity;BME280_pressure;Samples;Min_cycle;Max_cycle;Signal;HPM_P1;HPM_P2
2021/04/13 00:00:18;;;;;;;61.02;39.88;;;;;;;8.57;69.25;99882.55;1710645;83;21797;-61
2021/04/13 00:02:51;;;;;;;62.60;40.95;;;;;;;8.55;69.37;99879.79;1700209;83;21136;-61
2021/04/13 00:05:35;;;;;;;69.90;41.05;;;;;;;8.49;69.60;99877.58;1694456;83;21286;-61
2021/04/13 00:08:08;;;;;;;85.55;40.98;;;;;;;8.45;69.83;99881.33;1719052;82;21168;-62
2021/04/13 00:10:44;;;;;;;86.72;42.80;;;;;;;8.50;69.67;99877.86;1718572;82;21612;-61
2021/04/13 00:13:14;;;;;;;;;;;;;;;8.58;69.45;99881.98;1703434;83;21191;-61
2021/04/13 00:15:52;;;;;;;89.70;44.00;;;;;;;8.57;69.47;99877.66;1720748;83;20675;-61
2021/04/13 00:18:28;;;;;;;76.82;42.70;;;;;;;8.46;69.83;99884.33;1696249;83;21614;-61
2021/04/13 00:21:03;;;;;;;83.60;42.80;;;;;;;8.41;70.10;99876.66;1716108;83;21193;-62
2021/04/13 00:23:31;;;;;;;65.40;39.85;;;;;;;8.43;70.02;99875.32;1697910;83;21169;-62
2021/04/13 00:26:01;;;;;;;74.32;40.75;;;;;;;8.47;70.11;99875.09;1693052;83;21349;-62
2021/04/13 00:28:34;;;;;;;74.77;40.70;;;;;;;8.44;70.20;99874.25;1718671;82;21198;-62
2021/04/13 00:31:04;;;;;;;65.70;38.73;;;;;;;8.40;70.30;99878.55;1720231;83;21176;-60
2021/04/13 00:33:35;;;;;;;62.27;38.40;;;;;;;8.38;70.36;99871.21;1694230;83;21214;-61
2021/04/13 00:36:15;;;;;;;55.52;36.48;;;;;;;8.30;70.23;99850.48;1697395;83;21172;-62
2021/04/13 00:38:52;;;;;;;54.70;36.28;;;;;;;8.53;70.17;99877.88;1712172;82;21157;-61
2021/04/13 00:41:28;;;;;;;59.15;37.13;;;;;;;8.48;70.27;99884.89;1718979;83;21168;-62
2021/04/13 00:44:07;;;;;;;58.30;35.28;;;;;;;8.41;70.61;99884.27;1696114;83;21133;-62
2021/04/13 00:46:51;;;;;;;51.30;36.35;;;;;;;8.39;70.68;99874.75;1694015;84;21185;-62
2021/04/13 00:49:23;;;;;;;56.02;36.50;;;;;;;8.43;70.56;99876.68;1714610;83;21106;-62
2021/04/13 00:51:57;;;;;;;56.55;37.42;;;;;;;8.37;70.81;99882.30;1716686;82;21244;-62
2021/04/13 00:54:30;;;;;;;59.03;37.80;;;;;;;8.33;70.89;99876.56;1718931;83;21161;-63
2021/04/13 00:57:05;;;;;;;63.23;38.90;;;;;;;8.29;70.94;99883.56;1714666;82;21207;-62
2021/04/13 01:02:33;;;;;;;52.88;35.78;;;;;;;8.53;70.31;99879.23;1797016;79;22863;-62
2021/04/13 01:05:15;;;;;;;56.83;37.80;;;;;;;8.45;70.30;99875.91;1740589;81;21173;-60
2021/04/13 01:07:54;;;;;;;59.42;36.38;;;;;;;8.43;70.31;99878.59;1753605;81;21169;-61
2021/04/13 01:10:32;;;;;;;56.68;35.03;;;;;;;8.39;70.36;99878.28;1732736;82;21288;-61
2021/04/13 01:13:08;;;;;;;54.93;34.20;;;;;;;8.43;70.33;99873.97;1739221;82;21169;-61
2021/04/13 01:15:38;;;;;;;53.48;35.17;;;;;;;8.49;70.12;99893.84;1738432;81;21379;-60
2021/04/13 01:18:08;;;;;;;54.73;36.08;;;;;;;8.44;70.18;99884.28;1721526;83;21163;-60
2021/04/13 01:20:47;;;;;;;52.98;35.45;;;;;;;8.41;70.26;99882.09;1733535;81;21335;-60
2021/04/13 01:23:22;;;;;;;48.90;34.53;;;;;;;8.40;70.22;99887.22;1717482;82;21155;-60
2021/04/13 01:25:45;;;;;;;44.95;32.42;;;;;;;8.49;69.98;99886.53;1734404;81;21185;-61
2021/04/13 01:28:20;;;;;;;49.18;33.02;;;;;;;8.65;69.63;99883.97;1739388;82;21141;-61
2021/04/13 01:31:07;;;;;;;47.48;32.38;;;;;;;8.66;69.53;99883.72;1719698;81;21639;-61
2021/04/13 01:33:46;;;;;;;96.37;57.33;;;;;;;8.66;69.49;99885.08;1700030;83;21655;-61
2021/04/13 01:36:22;;;;;;;53.63;36.67;;;;;;;8.62;69.48;99888.02;1721730;83;21624;-61
2021/04/13 01:39:11;;;;;;;50.92;34.78;;;;;;;8.59;69.58;99891.78;1725568;81;21763;-62
2021/04/13 01:41:57;;;;;;;51.48;33.35;;;;;;;8.65;69.39;99886.67;1730736;81;21167;-61
2021/04/13 01:44:18;;;;;;;48.37;32.50;;;;;;;8.74;69.21;99889.23;1737718;81;21304;-61
2021/04/13 01:46:45;;;;;;;53.95;36.85;;;;;;;8.68;69.35;99882.91;1672694;84;21196;-62
2021/04/13 01:49:13;;;;;;;50.73;35.20;;;;;;;8.64;69.48;99881.81;1686331;83;21176;-62
2021/04/13 01:51:42;;;;;;;50.43;34.20;;;;;;;8.61;69.50;99878.79;1703137;83;21207;-62
2021/04/13 01:54:14;;;;;;;48.38;32.70;;;;;;;8.60;69.54;99882.04;1704251;83;21347;-62
2021/04/13 01:57:14;;;;;;;45.92;31.45;;;;;;;8.67;69.38;99881.30;1724576;81;21125;-62
2021/04/13 01:59:52;;;;;;;54.83;35.23;;;;;;;8.76;69.08;99878.39;1707759;82;21173;-61
2021/04/13 02:02:32;;;;;;;47.83;32.38;;;;;;;8.73;69.24;99877.55;1697122;84;21172;-61
2021/04/13 02:05:05;;;;;;;56.02;35.50;;;;;;;8.69;69.37;99879.14;1729593;82;21322;-62
2021/04/13 02:07:54;;;;;;;48.58;34.13;;;;;;;8.65;69.45;99873.11;1739161;82;21142;-61
2021/04/13 02:10:29;;;;;;;53.42;33.65;;;;;;;8.63;69.54;99878.81;1740332;82;21929;-62
2021/04/13 02:13:08;;;;;;;43.98;30.80;;;;;;;8.65;69.61;99886.67;1739051;82;21158;-62
2021/04/13 02:15:55;;;;;;;48.40;33.33;;;;;;;8.63;69.59;99885.59;1702416;82;21105;-62
2021/04/13 02:18:37;;;;;;;48.78;33.95;;;;;;;8.55;69.90;99881.97;1743111;82;21202;-62
2021/04/13 02:21:14;;;;;;;52.70;35.98;;;;;;;8.48;70.16;99879.46;1750781;82;21213;-62
2021/04/13 02:23:51;;;;;;;52.50;34.20;;;;;;;8.47;70.27;99876.98;1743936;82;21191;-61
2021/04/13 02:26:18;;;;;;;51.23;34.05;;;;;;;8.56;69.96;99878.73;1747436;82;21424;-61
2021/04/13 02:28:45;;;;;;;46.40;32.38;;;;;;;8.66;69.61;99881.01;1711330;82;21591;-61
2021/04/13 02:31:36;;;;;;;46.45;32.55;;;;;;;8.67;69.59;99884.55;1736731;82;21112;-61
2021/04/13 02:33:46;;;;;;;47.58;32.73;;;;;;;8.63;69.60;99884.77;1706994;82;21148;-61
2021/04/13 02:36:20;;;;;;;45.52;32.03;;;;;;;8.59;69.67;99879.56;1736166;82;21723;-62
2021/04/13 02:38:50;;;;;;;44.50;31.37;;;;;;;8.55;69.74;99874.36;1734295;82;21126;-61
2021/04/13 02:41:27;;;;;;;43.60;30.48;;;;;;;8.56;69.74;99870.59;1739213;82;21647;-61
2021/04/13 02:43:55;;;;;;;43.02;29.95;;;;;;;8.57;69.77;99873.59;1748555;82;21138;-61
2021/04/13 02:46:28;;;;;;;44.23;31.65;;;;;;;8.47;69.96;99875.09;1728314;82;21320;-62
2021/04/13 02:49:15;;;;;;;50.20;32.38;;;;;;;8.38;70.10;99869.03;1750172;80;21724;-62
2021/04/13 02:52:04;;;;;;;46.10;30.95;;;;;;;8.35;70.23;99873.61;1738650;82;21146;-61
2021/04/13 02:54:55;;;;;;;50.70;30.50;;;;;;;8.40;70.15;99869.05;1750877;82;21173;-62
2021/04/13 02:57:33;;;;;;;43.70;31.00;;;;;;;8.40;70.04;99870.41;1746606;82;21157;-62
2021/04/13 03:00:13;;;;;;;46.40;32.48;;;;;;;8.33;70.33;99868.43;1745270;82;21626;-62
2021/04/13 03:02:48;;;;;;;45.45;32.10;;;;;;;8.30;70.47;99872.19;1719589;82;21910;-62
2021/04/13 03:05:25;;;;;;;54.70;31.00;;;;;;;8.29;70.53;99871.92;1728206;82;21102;-62
2021/04/13 03:07:56;;;;;;;41.88;31.25;;;;;;;8.35;70.35;99862.23;1719218;82;21169;-62
2021/04/13 03:10:30;;;;;;;45.70;31.37;;;;;;;8.48;70.04;99865.07;1723092;82;21177;-62
2021/04/13 03:13:02;;;;;;;45.38;31.02;;;;;;;8.49;70.05;99864.83;1700350;83;21168;-62
2021/04/13 03:15:30;;;;;;;43.83;31.02;;;;;;;8.49;70.14;99861.30;1733254;82;21290;-62
2021/04/13 03:18:00;;;;;;;46.05;32.13;;;;;;;8.49;70.18;99861.30;1751593;82;21191;-61
2021/04/13 03:20:32;;;;;;;45.38;30.48;;;;;;;8.48;70.09;99857.76;1741697;82;21300;-62
2021/04/13 03:23:01;;;;;;;47.43;32.17;;;;;;;8.53;69.91;99858.89;1728898;82;21168;-62
2021/04/13 03:25:33;;;;;;;43.58;29.70;;;;;;;8.57;69.82;99857.31;1723124;82;21172;-62
2021/04/13 03:28:03;;;;;;;42.45;31.60;;;;;;;8.52;69.92;99853.17;1728650;82;21162;-61
2021/04/13 03:30:33;;;;;;;45.25;31.50;;;;;;;8.47;70.10;99860.70;1724970;82;21173;-62
2021/04/13 03:33:08;;;;;;;41.42;29.82;;;;;;;8.41;70.29;99857.14;1732714;82;21267;-62
2021/04/13 03:35:36;;;;;;;40.03;30.10;;;;;;;8.43;70.31;99864.47;1725115;82;21169;-62
2021/04/13 03:38:05;;;;;;;42.58;29.90;;;;;;;8.47;70.20;99853.39;1740638;82;21267;-62
2021/04/13 03:40:33;;;;;;;42.73;30.85;;;;;;;8.41;70.34;99859.02;1696207;82;21322;-62
2021/04/13 03:43:06;;;;;;;43.90;31.65;;;;;;;8.38;70.50;99860.36;1706536;82;21173;-62
2021/04/13 03:45:35;;;;;;;46.55;31.23;;;;;;;8.36;70.59;99863.05;1725207;83;21510;-62
2021/04/13 03:48:11;;;;;;;51.37;31.33;;;;;;;8.39;70.59;99860.66;1727359;82;21133;-61
2021/04/13 03:50:45;;;;;;;51.00;32.20;;;;;;;8.49;70.43;99858.05;1798537;79;23173;-61
2021/04/13 03:53:15;;;;;;;48.48;31.93;;;;;;;8.43;70.55;99859.61;1788054;80;21514;-61
2021/04/13 03:56:05;;;;;;;48.05;32.58;;;;;;;8.38;70.73;99857.65;1767244;80;21145;-61
2021/04/13 03:58:38;;;;;;;50.30;30.32;;;;;;;8.35;70.79;99861.41;1784806;80;21572;-61
2021/04/13 04:01:07;;;;;;;51.25;32.88;;;;;;;8.43;70.71;99860.97;1771171;80;21295;-61
2021/04/13 04:03:37;;;;;;;48.05;31.95;;;;;;;8.54;70.45;99864.05;1740361;81;21180;-61
2021/04/13 04:06:04;;;;;;;49.20;31.55;;;;;;;8.48;70.54;99863.19;1699263;83;22029;-62
2021/04/13 04:08:41;;;;;;;52.25;34.38;;;;;;;8.42;70.75;99877.77;1732270;82;21165;-62
2021/04/13 04:11:07;;;;;;;49.03;33.45;;;;;;;8.37;70.97;99880.95;1726016;81;21161;-61
2021/04/13 04:13:47;;;;;;;53.78;34.55;;;;;;;8.39;70.99;99884.25;1723547;82;21604;-61
2021/04/13 04:16:31;;;;;;;55.95;34.85;;;;;;;8.47;70.73;99882.41;1742727;81;21316;-61
2021/04/13 04:19:19;;;;;;;61.85;39.55;;;;;;;8.43;70.90;99876.68;1722756;82;21735;-61
2021/04/13 04:21:59;;;;;;;54.15;36.50;;;;;;;8.39;71.08;99884.25;1737831;81;21291;-60
2021/04/13 04:24:37;;;;;;;55.17;34.33;;;;;;;8.37;71.20;99885.84;1723086;81;21676;-61
2021/04/13 04:27:31;;;;;;;52.80;33.05;;;;;;;8.45;70.99;99882.69;1739093;81;21938;-62
2021/04/13 04:30:12;;;;;;;51.63;33.92;;;;;;;8.59;70.63;99888.53;1732666;81;21653;-62
2021/04/13 04:32:43;;;;;;;57.67;40.43;;;;;;;8.58;70.79;99877.92;1732204;81;21291;-62
2021/04/13 04:35:13;;;;;;;58.25;39.75;;;;;;;8.55;70.78;99881.97;1728706;81;21129;-62
2021/04/13 04:37:52;;;;;;;53.30;37.78;;;;;;;8.55;70.80;99879.26;1728145;81;21193;-62
2021/04/13 04:40:27;;;;;;;50.20;32.58;;;;;;;8.56;70.85;99890.94;1729839;81;21180;-61
2021/04/13 04:43:01;;;;;;;51.08;32.58;;;;;;;8.62;70.65;99891.27;1692496;84;21195;-61
2021/04/13 04:45:47;;;;;;;49.80;33.05;;;;;;;8.67;70.45;99888.08;1717047;82;21190;-62
2021/04/13 04:48:33;;;;;;;47.67;33.10;;;;;;;8.65;70.58;99883.97;1741709;81;21646;-61
2021/04/13 04:51:12;;;;;;;49.63;33.40;;;;;;;8.65;70.63;99886.67;1741701;81;21279;-61
2021/04/13 04:53:41;;;;;;;47.17;31.97;;;;;;;8.66;70.67;99895.11;1731327;82;21145;-61
2021/04/13 04:56:10;;;;;;;44.58;30.12;;;;;;;8.75;70.42;99894.39;1703574;83;21355;-62
2021/04/13 04:58:37;;;;;;;45.50;31.97;;;;;;;8.87;70.10;99884.74;1715942;83;21183;-61
2021/04/13 05:01:05;;;;;;;46.33;31.73;;;;;;;8.88;69.98;99888.57;1704844;83;21170;-62
2021/04/13 05:03:36;;;;;;;52.67;33.13;;;;;;;8.87;70.02;99888.81;1709897;83;21327;-62
2021/04/13 05:06:04;;;;;;;46.37;31.02;;;;;;;8.86;70.02;99889.88;1754942;82;21275;-63
2021/04/13 05:08:31;;;;;;;45.67;31.20;;;;;;;8.83;70.00;99889.86;1728467;82;21165;-62
2021/04/13 05:10:58;;;;;;;48.00;30.97;;;;;;;8.86;69.87;99887.98;1730873;82;21102;-62
2021/04/13 05:13:27;;;;;;;42.60;30.37;;;;;;;8.95;69.60;99885.11;1704785;83;21652;-62
2021/04/13 05:15:57;;;;;;;47.40;31.75;;;;;;;8.94;69.69;99882.64;1721643;83;21176;-62
2021/04/13 05:18:25;;;;;;;43.10;32.10;;;;;;;8.91;69.85;99885.34;1754631;82;21319;-62
2021/04/13 05:20:53;;;;;;;43.33;30.80;;;;;;;8.88;70.03;99891.81;1720112;83;21169;-61
2021/04/13 05:23:21;;;;;;;44.50;31.27;;;;;;;8.92;70.11;99890.23;1708602;83;21316;-62
2021/04/13 05:25:48;;;;;;;45.35;31.27;;;;;;;9.00;69.81;99877.52;1719259;83;21236;-61
2021/04/13 05:28:16;;;;;;;44.08;32.05;;;;;;;9.00;69.71;99881.06;1753427;82;21182;-61
2021/04/13 05:30:44;;;;;;;44.58;30.88;;;;;;;8.98;69.81;99879.16;1733016;81;21157;-62
2021/04/13 05:33:11;;;;;;;47.85;32.45;;;;;;;8.97;69.84;99882.12;1730188;82;21122;-61
2021/04/13 05:35:38;;;;;;;45.43;31.05;;;;;;;9.03;69.71;99883.00;1710234;83;21299;-61
2021/04/13 05:38:16;;;;;;;44.50;32.35;;;;;;;9.11;69.50;99873.00;1716876;83;21549;-61
2021/04/13 05:40:43;;;;;;;53.52;34.78;;;;;;;9.14;69.35;99876.59;1705916;83;21206;-62
2021/04/13 05:43:12;;;;;;;54.15;35.05;;;;;;;9.09;69.27;99880.06;1709216;83;21172;-62
2021/04/13 05:45:42;;;;;;;50.58;33.10;;;;;;;9.05;69.45;99876.76;1739851;81;21141;-62
2021/04/13 05:48:11;;;;;;;51.02;32.40;;;;;;;9.07;69.42;99874.62;1731309;81;21172;-62
2021/04/13 05:50:41;;;;;;;49.38;32.17;;;;;;;9.06;69.22;99861.58;1737996;81;21166;-62
2021/04/13 05:53:09;;;;;;;46.15;31.30;;;;;;;9.19;68.84;99871.17;1766534;80;21303;-62
2021/04/13 05:55:37;;;;;;;51.15;33.30;;;;;;;9.16;68.92;99868.45;1785982;80;21177;-62
2021/04/13 05:58:09;;;;;;;64.17;36.53;;;;;;;9.15;68.97;99872.77;1779064;80;21160;-62
2021/04/13 06:00:36;;;;;;;71.17;38.95;;;;;;;9.12;69.06;99866.50;1761330;80;21568;-62
2021/04/13 06:03:03;;;;;;;56.83;34.55;;;;;;;9.15;69.07;99869.52;1777817;80;21169;-62
2021/04/13 06:05:32;;;;;;;46.10;32.53;;;;;;;9.23;68.92;99870.94;1773014;80;21165;-62
2021/04/13 06:07:59;;;;;;;48.50;31.33;;;;;;;9.28;68.98;99865.00;1762084;80;21157;-62
2021/04/13 06:10:26;;;;;;;47.43;30.65;;;;;;;9.30;68.91;99874.25;1773074;80;21189;-62
2021/04/13 06:12:57;;;;;;;49.13;32.63;;;;;;;9.29;68.94;99870.72;1755744;80;21291;-62
2021/04/13 06:15:26;;;;;;;44.30;29.77;;;;;;;9.33;68.65;99874.55;1758588;80;21315;-62
2021/04/13 06:17:53;;;;;;;51.95;32.15;;;;;;;9.42;68.50;99870.27;1756137;80;21145;-62
2021/04/13 06:20:22;;;;;;;51.70;35.43;;;;;;;9.47;68.41;99874.39;1778257;80;21144;-62
2021/04/13 06:22:51;;;;;;;111.10;71.00;;;;;;;9.48;68.31;99876.57;1767717;80;21190;-62
2021/04/13 06:25:20;;;;;;;73.50;49.42;;;;;;;9.45;68.32;99871.66;1760627;80;21165;-62
2021/04/13 06:27:48;;;;;;;62.30;41.08;;;;;;;9.43;68.40;99870.55;1769359;80;21657;-61
2021/04/13 06:30:18;;;;;;;61.15;41.48;;;;;;;9.48;68.42;99875.21;1760371;80;21160;-61
2021/04/13 06:32:45;;;;;;;57.33;40.33;;;;;;;9.57;68.30;99866.84;1755399;82;21648;-62
2021/04/13 06:35:13;;;;;;;51.42;38.88;;;;;;;9.56;68.15;99875.27;1755281;82;21328;-61
2021/04/13 06:37:41;;;;;;;64.90;43.80;;;;;;;9.48;68.25;99869.23;1755120;82;21320;-60
2021/04/13 06:40:12;;;;;;;52.43;35.78;;;;;;;9.43;68.50;99873.27;1755367;80;21187;-61
2021/04/13 06:42:45;;;;;;;43.17;31.85;;;;;;;9.47;68.46;99868.95;1777329;80;21276;-61
2021/04/13 06:45:27;;;;;;;47.65;33.60;;;;;;;9.58;68.05;99871.73;1768699;80;21177;-61
2021/04/13 06:48:18;;;;;;;51.28;35.92;;;;;;;9.57;68.03;99867.38;1757666;80;21198;-62
2021/04/13 06:51:09;;;;;;;46.83;34.10;;;;;;;9.59;68.21;99872.02;1753345;80;21148;-60
2021/04/13 06:54:07;;;;;;;53.28;34.60;;;;;;;9.61;68.28;99867.95;1752538;80;21186;-62
2021/04/13 06:57:02;;;;;;;58.78;38.88;;;;;;;9.72;67.87;99872.91;1746234;81;21174;-62
2021/04/13 06:59:55;;;;;;;47.70;35.60;;;;;;;9.78;67.71;99869.95;1757268;81;21131;-61
2021/04/13 07:03:06;;;;;;;49.85;33.65;;;;;;;9.78;67.88;99871.85;1750554;81;21149;-60
2021/04/13 07:05:48;;;;;;;53.35;37.63;;;;;;;9.75;67.96;99871.84;1744913;81;21151;-60
2021/04/13 07:08:27;;;;;;;61.48;41.13;;;;;;;9.71;68.01;99878.88;1748137;81;21325;-60
2021/04/13 07:10:58;;;;;;;87.82;57.27;;;;;;;9.75;67.84;99874.56;1740216;81;21198;-61
2021/04/13 07:13:54;;;;;;;54.00;40.88;;;;;;;9.79;67.89;99879.76;1722392;83;21385;-62
2021/04/13 07:16:26;;;;;;;52.73;34.10;;;;;;;9.76;68.02;99879.47;1696474;83;21122;-62
2021/04/13 07:19:26;;;;;;;56.10;37.63;;;;;;;9.73;68.31;99881.36;1711303;82;21139;-62
2021/04/13 07:22:32;;;;;;;60.20;42.83;;;;;;;9.81;68.32;99884.95;1738401;81;21332;-62
2021/04/13 07:25:16;;;;;;;48.50;32.65;;;;;;;9.96;67.88;99878.21;1754208;81;21287;-60
2021/04/13 07:27:54;;;;;;;70.28;46.65;;;;;;;10.00;68.11;99886.95;1749403;81;21178;-60
2021/04/13 07:30:36;;;;;;;56.85;38.20;;;;;;;9.99;67.82;99874.42;1761045;81;21361;-60
2021/04/13 07:33:04;;;;;;;54.42;33.73;;;;;;;9.97;68.14;99876.60;1722766;82;21481;-61
2021/04/13 07:35:37;;;;;;;53.10;33.98;;;;;;;9.99;68.10;99881.76;1737810;81;21145;-60
2021/04/13 07:38:11;;;;;;;51.08;36.23;;;;;;;10.05;68.52;99880.72;1748666;81;21287;-60
2021/04/13 07:40:40;;;;;;;60.83;40.55;;;;;;;10.02;68.79;99883.98;1730874;81;21522;-62
2021/04/13 07:43:20;;;;;;;66.70;40.60;;;;;;;9.96;69.15;99885.01;1756054;81;21175;-61
2021/04/13 07:46:08;;;;;;;55.67;35.65;;;;;;;10.00;69.26;99886.13;1757009;81;21265;-59
2021/04/13 07:48:56;;;;;;;63.78;40.15;;;;;;;10.05;69.69;99894.32;1753311;81;21155;-61
2021/04/13 07:51:35;;;;;;;65.28;39.88;;;;;;;9.89;70.67;99887.97;1734512;81;21181;-60
2021/04/13 07:54:24;;;;;;;47.30;32.20;;;;;;;9.76;71.84;99879.47;1712021;82;21141;-60
2021/04/13 07:57:05;;;;;;;52.88;32.78;;;;;;;9.81;71.93;99878.15;1743356;82;21161;-62
2021/04/13 07:59:44;;;;;;;55.15;32.90;;;;;;;9.88;72.22;99879.52;1748810;82;21275;-62
2021/04/13 08:02:12;;;;;;;45.35;32.33;;;;;;;9.83;72.66;99871.89;1750276;81;21711;-62
2021/04/13 08:04:43;;;;;;;47.25;31.52;;;;;;;9.85;73.31;99878.70;1754407;81;21173;-62
2021/04/13 08:07:31;;;;;;;47.93;31.65;;;;;;;9.98;73.12;99875.52;1715318;82;21149;-62
2021/04/13 08:10:05;;;;;;;;;;;;;;;9.87;73.05;99853.44;1725330;82;21159;-61
2021/04/13 08:12:35;;;;;;;52.80;34.10;;;;;;;10.06;73.11;99877.47;1737741;80;20442;-60
2021/04/13 08:15:08;;;;;;;48.00;31.97;;;;;;;10.10;73.14;99872.56;1750490;80;21585;-61
2021/04/13 08:17:53;;;;;;;48.58;33.08;;;;;;;10.26;72.99;99874.86;1761527;80;21315;-61
2021/04/13 08:20:27;;;;;;;51.30;34.92;;;;;;;10.32;72.64;99871.06;1736823;82;21197;-60
2021/04/13 08:23:03;;;;;;;52.43;33.28;;;;;;;10.31;72.82;99878.94;1735808;81;21106;-60
2021/04/13 08:25:44;;;;;;;51.42;32.78;;;;;;;10.40;72.73;99876.00;1730195;82;21173;-61
2021/04/13 08:28:31;;;;;;;50.12;34.80;;;;;;;10.46;72.51;99868.11;1741128;80;21157;-62
2021/04/13 08:34:54;;;;;;;53.38;34.30;;;;;;;10.33;72.99;99869.98;1761637;80;21592;-63
2021/04/13 08:37:44;;;;;;;48.68;33.13;;;;;;;10.40;73.08;99869.19;1744856;81;21540;-62
2021/04/13 08:40:35;;;;;;;49.65;34.85;;;;;;;10.49;73.12;99861.59;1698651;83;21292;-62
2021/04/13 08:43:16;;;;;;;46.53;32.63;;;;;;;10.51;73.04;99849.09;1706306;83;21530;-62
2021/04/13 08:46:23;;;;;;;51.77;35.13;;;;;;;10.60;72.70;99854.81;1736412;81;21700;-61
2021/04/13 08:49:25;;;;;;;50.10;33.92;;;;;;;10.62;72.25;99854.02;1717824;82;21166;-61
2021/04/13 08:52:25;;;;;;;51.40;34.35;;;;;;;10.59;72.58;99849.94;1760412;80;21157;-63
2021/04/13 08:55:05;;;;;;;43.75;30.80;;;;;;;10.60;72.73;99846.64;1760138;81;21293;-63
2021/04/13 08:57:36;;;;;;;47.88;32.40;;;;;;;10.73;72.15;99842.88;1735715;81;21305;-62
2021/04/13 09:00:43;;;;;;;50.85;34.83;;;;;;;10.75;72.03;99843.95;1761702;80;21748;-62
2021/04/13 09:03:14;;;;;;;49.58;33.50;;;;;;;10.76;72.05;99843.70;1761148;80;21152;-63
2021/04/13 09:05:42;;;;;;;58.75;36.83;;;;;;;10.85;71.61;99846.69;1761748;80;21165;-63
2021/04/13 09:08:33;;;;;;;55.25;36.38;;;;;;;10.91;71.33;99845.05;1762904;80;21648;-64
2021/04/13 09:11:24;;;;;;;53.13;37.10;;;;;;;10.92;71.48;99848.59;1761177;80;21442;-63
2021/04/13 09:14:27;;;;;;;60.60;36.97;;;;;;;10.94;71.30;99842.35;1833361;77;22955;-63
2021/04/13 09:17:15;;;;;;;62.15;39.73;;;;;;;10.99;71.37;99841.80;1787878;79;21879;-61
2021/04/13 09:19:54;;;;;;;58.40;40.73;;;;;;;11.03;70.83;99839.89;1801674;79;21128;-63
2021/04/13 09:22:36;;;;;;;62.47;38.77;;;;;;;10.96;71.02;99838.27;1804443;79;22750;-63
2021/04/13 09:25:13;;;;;;;64.50;40.75;;;;;;;10.89;71.07;99839.61;1744127;81;21145;-62
2021/04/13 09:27:48;;;;;;;62.15;41.48;;;;;;;10.92;70.96;99840.43;1703837;83;21184;-62
2021/04/13 09:30:24;;;;;;;81.53;50.20;;;;;;;10.86;70.54;99837.44;1712709;82;21682;-61
2021/04/13 09:32:57;;;;;;;96.10;55.17;;;;;;;10.81;70.86;99833.34;1709373;82;21189;-62
2021/04/13 09:35:52;;;;;;;64.97;42.13;;;;;;;10.87;71.17;99839.08;1718894;82;21245;-62
2021/04/13 09:38:54;;;;;;;62.20;41.35;;;;;;;11.04;70.60;99835.55;1722091;82;21750;-62
2021/04/13 09:41:50;;;;;;;64.27;40.90;;;;;;;11.05;70.35;99837.19;1716921;82;21330;-61
2021/04/13 09:44:33;;;;;;;58.83;40.37;;;;;;;11.03;70.29;99841.25;1718879;82;21179;-61
2021/04/13 09:47:44;;;;;;;59.03;40.80;;;;;;;11.14;69.66;99835.54;1750400;81;21167;-61
2021/04/13 09:50:40;;;;;;;54.00;37.33;;;;;;;11.19;69.30;99836.91;1705244;83;21141;-62
2021/04/13 09:53:41;;;;;;;54.15;37.53;;;;;;;11.17;69.10;99825.99;1699499;83;21626;-61
2021/04/13 09:56:37;;;;;;;52.10;36.40;;;;;;;11.17;69.06;99831.45;1713097;82;21168;-61
2021/04/13 09:59:42;;;;;;;52.40;35.35;;;;;;;11.24;68.58;99828.72;1707614;82;21182;-61
2021/04/13 10:02:36;;;;;;;49.27;34.60;;;;;;;11.34;68.24;99829.25;1719047;82;21299;-61
2021/04/13 10:05:12;;;;;;;48.52;34.45;;;;;;;11.34;68.10;99827.34;1717967;82;21166;-60
2021/04/13 10:08:06;;;;;;;50.92;35.00;;;;;;;11.41;67.67;99824.33;1727461;82;21171;-60
2021/04/13 10:11:10;;;;;;;46.00;33.40;;;;;;;11.49;67.53;99817.78;1708089;82;21841;-63
2021/04/13 10:14:13;;;;;;;46.40;33.83;;;;;;;11.52;67.20;99823.77;1717101;82;21169;-61
2021/04/13 10:17:37;;;;;;;50.33;32.53;;;;;;;11.51;67.16;99823.52;1756341;81;21318;-60
2021/04/13 10:20:49;;;;;;;41.45;30.02;;;;;;;11.49;67.04;99821.05;1754757;81;21121;-65
2021/04/13 10:23:34;;;;;;;37.58;28.12;;;;;;;11.67;66.14;99816.38;1747440;81;21318;-64
2021/04/13 10:26:47;;;;;;;43.27;31.27;;;;;;;11.75;65.30;99805.48;1753225;79;22920;-59
2021/04/13 10:29:42;;;;;;;43.17;31.27;;;;;;;11.73;65.28;99818.56;1679103;85;21786;-60
2021/04/13 10:32:45;;;;;;;40.15;28.67;;;;;;;11.72;65.49;99819.14;1706692;83;21639;-59
2021/04/13 10:35:47;;;;;;;39.63;30.10;;;;;;;11.81;64.92;99814.73;1718464;83;21176;-60
2021/04/13 11:01:20;;;;;;;43.00;31.00;;;;;;;13.37;60.02;99801.19;1745451;82;21318;-61
2021/04/13 11:04:37;;;;;;;41.75;32.83;;;;;;;12.86;60.95;99804.87;1746086;82;21133;-62
2021/04/13 11:07:51;;;;;;;38.50;31.00;;;;;;;12.55;62.23;99807.55;1706568;82;21392;-60
2021/04/13 11:10:41;;;;;;;40.73;30.27;;;;;;;12.35;62.74;99801.13;1708874;82;21182;-61
2021/04/13 11:13:44;;;;;;;37.10;29.00;;;;;;;12.24;63.37;99796.00;1723827;82;21121;-62
2021/04/13 11:16:47;;;;;;;39.50;28.67;;;;;;;12.20;63.26;99798.47;1756645;81;21117;-63
2021/04/13 11:19:50;;;;;;;38.15;27.90;;;;;;;12.07;63.89;99800.45;1726839;81;21173;-62
2021/04/13 11:23:00;;;;;;;39.18;29.23;;;;;;;11.98;64.27;99798.02;1754714;82;21169;-63
2021/04/13 11:26:14;;;;;;;39.63;26.70;;;;;;;11.99;64.56;99796.94;1716623;82;21514;-63
2021/04/13 11:29:09;;;;;;;35.80;28.45;;;;;;;12.10;64.29;99799.07;1663472;84;21330;-62
2021/04/13 11:32:11;;;;;;;37.50;27.58;;;;;;;12.16;63.55;99797.94;1720371;83;21315;-61
2021/04/13 11:34:57;;;;;;;39.70;29.15;;;;;;;12.10;63.56;99797.16;1723274;82;21348;-63
2021/04/13 11:37:48;;;;;;;37.45;28.60;;;;;;;11.95;63.92;99789.86;1726444;82;21161;-60
2021/04/13 11:40:40;;;;;;;35.38;27.58;;;;;;;11.80;64.34;99796.73;1706291;83;21174;-62
2021/04/13 11:43:11;;;;;;;34.75;27.40;;;;;;;11.80;64.31;99792.64;1716163;82;21343;-64
2021/04/13 11:46:08;;;;;;;37.42;27.98;;;;;;;11.76;64.27;99795.65;1712674;82;21323;-64
2021/04/13 11:48:56;;;;;;;38.00;28.98;;;;;;;11.69;64.63;99791.00;1721283;83;21180;-63
2021/04/13 11:51:32;;;;;;;31.73;24.15;;;;;;;11.65;65.06;99795.95;1727217;82;21622;-66
2021/04/13 11:54:38;;;;;;;41.57;29.67;;;;;;;11.71;65.29;99786.68;1802700;77;22906;-66
2021/04/13 11:57:27;;;;;;;38.45;27.02;;;;;;;11.74;64.92;99786.94;1768110;80;21678;-64
2021/04/13 12:00:19;;;;;;;47.05;32.30;;;;;;;11.74;65.18;99782.03;1780014;80;21207;-63
2021/04/13 12:02:49;;;;;;;44.55;33.33;;;;;;;11.60;65.63;99793.22;1775479;80;21135;-63
2021/04/13 12:05:28;;;;;;;48.33;33.25;;;;;;;11.53;66.10;99789.97;1772842;80;21176;-64
2021/04/13 12:07:57;;;;;;;47.75;33.18;;;;;;;11.58;66.30;99786.70;1788943;79;21598;-63
2021/04/13 12:10:39;;;;;;;42.62;31.50;;;;;;;11.72;65.85;99783.69;1768782;80;21165;-63
2021/04/13 12:13:08;;;;;;;41.83;31.80;;;;;;;11.72;65.37;99776.88;1790347;80;21401;-63
2021/04/13 12:15:50;;;;;;;45.20;33.40;;;;;;;11.68;65.72;99770.84;1742097;81;21155;-63
2021/04/13 12:18:42;;;;;;;46.80;32.78;;;;;;;11.69;65.64;99773.85;1734284;82;21202;-63
2021/04/13 12:21:29;;;;;;;43.68;31.82;;;;;;;11.72;65.52;99772.78;1759451;81;21144;-63
2021/04/13 12:24:04;;;;;;;42.47;31.23;;;;;;;11.71;65.04;99770.31;1742667;81;21150;-62
2021/04/13 12:26:47;;;;;;;47.27;33.55;;;;;;;11.65;65.39;99771.41;1718503;83;21783;-64
2021/04/13 12:29:32;;;;;;;47.33;32.90;;;;;;;11.57;65.67;99773.33;1744657;81;21566;-63
2021/04/13 12:32:17;;;;;;;43.75;31.05;;;;;;;11.53;66.09;99767.62;1758284;81;21602;-64
2021/04/13 12:35:07;;;;;;;43.40;31.10;;;;;;;11.60;65.53;99770.05;1726672;82;21691;-62
2021/04/13 12:37:46;;;;;;;39.80;30.88;;;;;;;11.57;65.68;99763.79;1711343;83;21308;-62
2021/04/13 12:40:25;;;;;;;42.90;30.25;;;;;;;11.50;65.95;99764.09;1682298;84;21328;-62
2021/04/13 12:43:07;;;;;;;37.25;27.82;;;;;;;11.40;66.25;99761.39;1663453;85;21927;-62
2021/04/13 12:45:49;;;;;;;41.95;31.02;;;;;;;11.37;66.33;99759.22;1624171;85;21358;-63
2021/04/13 12:48:28;;;;;;;34.88;28.00;;;;;;;11.38;66.57;99759.47;1687871;84;21619;-62